createdAt,value
2023-02-11T00:00:18.181Z,4.11
2023-02-11T00:03:10.590Z,4.26
2023-02-11T00:05:43.349Z,4.27
2023-02-11T00:08:17.132Z,4.06
2023-02-11T00:10:54.426Z,4.11
2023-02-11T00:13:27.442Z,4.26
2023-02-11T00:16:00.345Z,4.22
2023-02-11T00:18:36.478Z,4.31
2023-02-11T00:21:14.008Z,4.19
2023-02-11T00:23:49.560Z,4.18
2023-02-11T00:26:23.969Z,4.34
2023-02-11T00:28:57.198Z,4.46
2023-02-11T00:31:30.423Z,4.23
2023-02-11T00:34:02.939Z,4.40
2023-02-11T00:36:35.531Z,4.28
2023-02-11T00:39:08.918Z,4.29
2023-02-11T00:41:41.533Z,4.19
2023-02-11T00:44:15.233Z,4.42
2023-02-11T00:46:47.940Z,4.37
2023-02-11T00:49:20.591Z,4.26
2023-02-11T00:51:53.794Z,4.38
2023-02-11T00:54:28.429Z,4.36
2023-02-11T00:57:02.318Z,4.32
2023-02-11T00:59:34.861Z,4.38
2023-02-11T01:02:07.293Z,4.28
2023-02-11T01:04:39.723Z,4.30
2023-02-11T01:07:13.180Z,4.31
2023-02-11T01:09:46.180Z,4.27
2023-02-11T01:12:18.729Z,4.32
2023-02-11T01:14:51.412Z,4.15
2023-02-11T01:17:29.029Z,4.42
2023-02-11T01:20:03.248Z,4.33
2023-02-11T01:22:37.472Z,4.38
2023-02-11T01:25:12.068Z,4.40
2023-02-11T01:27:44.700Z,4.50
2023-02-11T01:30:17.947Z,4.21
2023-02-11T01:32:52.722Z,4.23
2023-02-11T01:35:25.232Z,4.14
2023-02-11T01:37:57.703Z,4.20
2023-02-11T01:40:30.296Z,4.18
2023-02-11T01:43:02.770Z,4.20
2023-02-11T01:46:04.439Z,4.21
2023-02-11T01:48:40.518Z,4.29
2023-02-11T01:51:18.212Z,4.42
2023-02-11T01:54:08.498Z,4.59
2023-02-11T01:57:03.631Z,4.77
2023-02-11T01:59:41.961Z,4.58
2023-02-11T02:02:19.025Z,4.55
2023-02-11T02:04:58.886Z,4.49
2023-02-11T02:07:37.544Z,4.52
2023-02-11T02:10:14.683Z,4.31
2023-02-11T02:12:47.118Z,4.38
2023-02-11T02:15:26.191Z,4.46
2023-02-11T02:18:02.861Z,4.55
2023-02-11T02:21:20.029Z,4.55
2023-02-11T02:24:25.520Z,4.45
2023-02-11T02:27:30.850Z,4.52
2023-02-11T02:30:36.921Z,4.59
2023-02-11T02:33:34.726Z,4.57
2023-02-11T02:36:16.140Z,4.49
2023-02-11T02:38:53.486Z,4.53
2023-02-11T02:41:29.699Z,4.13
2023-02-11T02:44:02.357Z,4.26
2023-02-11T02:46:36.694Z,4.31
2023-02-11T02:49:16.160Z,4.50
2023-02-11T02:52:11.706Z,4.24
2023-02-11T02:55:04.909Z,4.07
2023-02-11T02:57:47.052Z,4.35
2023-02-11T03:00:30.639Z,4.36
2023-02-11T03:03:17.250Z,4.48
2023-02-11T03:05:57.141Z,4.44
2023-02-11T03:08:35.970Z,4.36
2023-02-11T03:11:10.307Z,4.28
2023-02-11T03:13:44.993Z,4.25
2023-02-11T03:16:21.249Z,4.42
2023-02-11T03:19:00.669Z,4.47
2023-02-11T03:21:35.474Z,4.45
2023-02-11T03:24:11.976Z,4.53
2023-02-11T03:26:50.564Z,4.37
2023-02-11T03:29:33.451Z,4.54
2023-02-11T03:32:12.377Z,4.74
2023-02-11T03:34:50.507Z,4.73
2023-02-11T03:37:26.936Z,4.53
2023-02-11T03:40:04.829Z,4.50
2023-02-11T03:42:41.437Z,4.45
2023-02-11T03:45:17.980Z,4.52
2023-02-11T03:47:56.310Z,4.41
2023-02-11T03:50:31.543Z,4.59
2023-02-11T03:53:05.481Z,4.47
2023-02-11T03:55:40.774Z,4.46
2023-02-11T03:58:13.427Z,4.30
2023-02-11T04:00:47.751Z,4.33
2023-02-11T04:03:20.300Z,4.44
2023-02-11T04:05:53.190Z,4.60
2023-02-11T04:08:25.512Z,4.39
2023-02-11T04:10:57.913Z,4.50
2023-02-11T04:13:30.481Z,4.34
2023-02-11T04:16:03.050Z,4.36
2023-02-11T04:18:37.789Z,4.37
2023-02-11T04:21:10.560Z,4.43
2023-02-11T04:23:42.947Z,4.63
2023-02-11T04:29:05.606Z,4.62
2023-02-11T04:31:38.273Z,4.65
2023-02-11T04:34:10.666Z,4.63
2023-02-11T04:36:43.127Z,4.49
2023-02-11T04:39:15.518Z,4.38
2023-02-11T04:41:48.756Z,4.50
2023-02-11T04:44:21.122Z,4.48
2023-02-11T04:46:53.521Z,4.60
2023-02-11T04:49:25.888Z,4.64
2023-02-11T04:51:58.470Z,4.67
2023-02-11T04:54:30.868Z,4.55
2023-02-11T04:57:04.248Z,4.57
2023-02-11T04:59:36.613Z,4.62
2023-02-11T05:02:09.273Z,4.66
2023-02-11T05:04:42.051Z,4.65
2023-02-11T05:07:15.221Z,4.59
2023-02-11T05:09:47.668Z,4.50
2023-02-11T05:12:20.115Z,4.33
2023-02-11T05:14:52.575Z,4.44
2023-02-11T05:17:25.071Z,4.17
2023-02-11T05:19:58.728Z,4.48
2023-02-11T05:22:31.385Z,4.74
2023-02-11T05:25:03.755Z,4.64
2023-02-11T05:27:36.847Z,4.51
2023-02-11T05:30:12.592Z,4.62
2023-02-11T05:32:45.639Z,4.63
2023-02-11T05:35:18.432Z,4.76
2023-02-11T05:37:50.976Z,4.48
2023-02-11T05:40:24.078Z,4.20
2023-02-11T05:42:56.612Z,4.57
2023-02-11T05:45:29.152Z,4.56
2023-02-11T05:48:01.639Z,4.49
2023-02-11T05:50:33.982Z,4.41
2023-02-11T05:53:07.016Z,4.38
2023-02-11T05:55:39.707Z,4.41
2023-02-11T05:58:12.313Z,4.46
2023-02-11T06:00:45.460Z,4.38
2023-02-11T06:03:18.276Z,4.41
2023-02-11T06:05:51.165Z,4.33
2023-02-11T06:08:23.913Z,4.44
2023-02-11T06:10:56.537Z,4.51
2023-02-11T06:13:29.180Z,4.31
2023-02-11T06:16:02.977Z,4.54
2023-02-11T06:18:38.006Z,4.56
2023-02-11T06:21:12.639Z,4.47
2023-02-11T06:23:45.429Z,4.52
2023-02-11T06:26:23.821Z,4.47
2023-02-11T06:28:56.683Z,4.64
2023-02-11T06:31:29.377Z,4.65
2023-02-11T06:34:02.117Z,4.61
2023-02-11T06:36:34.606Z,4.74
2023-02-11T06:39:08.041Z,4.63
2023-02-11T06:41:40.721Z,4.54
2023-02-11T06:44:13.343Z,4.59
2023-02-11T06:46:47.926Z,4.76
2023-02-11T06:49:20.879Z,4.74
2023-02-11T06:51:53.738Z,4.85
2023-02-11T06:54:26.709Z,4.92
2023-02-11T06:57:01.956Z,4.82
2023-02-11T06:59:36.595Z,4.81
2023-02-11T07:02:10.380Z,4.79
2023-02-11T07:04:43.150Z,4.92
2023-02-11T07:07:15.706Z,4.80
2023-02-11T07:09:48.296Z,4.97
2023-02-11T07:12:20.744Z,5.02
2023-02-11T07:14:53.582Z,5.14
2023-02-11T07:17:27.237Z,5.14
2023-02-11T07:19:59.755Z,5.02
2023-02-11T07:22:32.308Z,4.89
2023-02-11T07:25:05.556Z,4.80
2023-02-11T07:27:38.151Z,4.85
2023-02-11T07:30:13.011Z,4.94
2023-02-11T07:32:45.544Z,5.00
2023-02-11T07:35:18.238Z,5.14
2023-02-11T07:37:50.608Z,5.19
2023-02-11T07:40:23.262Z,5.10
2023-02-11T07:42:55.749Z,5.15
2023-02-11T07:45:28.355Z,5.27
2023-02-11T07:48:00.759Z,5.19
2023-02-11T07:50:33.656Z,5.16
2023-02-11T07:53:06.360Z,5.29
2023-02-11T07:55:38.982Z,5.07
2023-02-11T07:58:11.302Z,5.18
2023-02-11T08:00:44.380Z,5.05
2023-02-11T08:03:16.846Z,5.13
2023-02-11T08:05:49.739Z,5.20
2023-02-11T08:08:22.402Z,5.23
2023-02-11T08:10:55.000Z,5.33
2023-02-11T08:13:27.756Z,5.16
2023-02-11T08:16:02.081Z,5.18
2023-02-11T08:18:35.170Z,5.24
2023-02-11T08:21:12.952Z,5.28
2023-02-11T08:23:46.485Z,5.43
2023-02-11T08:26:21.613Z,5.31
2023-02-11T08:28:56.839Z,5.40
2023-02-11T08:31:31.616Z,5.37
2023-02-11T08:34:04.116Z,5.38
2023-02-11T08:36:40.218Z,5.35
2023-02-11T08:39:19.544Z,5.44
2023-02-11T08:41:56.686Z,5.55
2023-02-11T08:44:29.669Z,5.53
2023-02-11T08:47:02.141Z,5.53
2023-02-11T08:49:34.490Z,5.68
2023-02-11T08:52:07.399Z,5.68
2023-02-11T08:54:39.908Z,5.69
2023-02-11T08:57:12.692Z,5.57
2023-02-11T08:59:45.071Z,5.57
2023-02-11T09:02:17.838Z,5.54
2023-02-11T09:04:50.349Z,5.61
2023-02-11T09:07:22.892Z,5.52
2023-02-11T09:09:55.597Z,5.54
2023-02-11T09:12:28.032Z,5.51
2023-02-11T09:15:00.711Z,5.72
2023-02-11T09:17:33.535Z,5.67
2023-02-11T09:20:08.580Z,5.79
2023-02-11T09:22:42.285Z,5.86
2023-02-11T09:25:14.723Z,6.07
2023-02-11T09:27:47.469Z,5.90
2023-02-11T09:30:20.106Z,5.84
2023-02-11T09:32:53.173Z,5.83
2023-02-11T09:35:25.813Z,5.80
2023-02-11T09:37:58.676Z,5.77
2023-02-11T09:40:31.492Z,5.92
2023-02-11T09:43:09.592Z,6.02
2023-02-11T09:45:42.052Z,5.92
2023-02-11T09:48:19.589Z,5.89
2023-02-11T09:50:55.582Z,6.17
2023-02-11T09:53:29.762Z,6.24
2023-02-11T09:56:04.655Z,6.04
2023-02-11T09:58:41.442Z,6.17
2023-02-11T10:01:26.308Z,6.28
2023-02-11T10:04:06.168Z,6.22
2023-02-11T10:06:43.598Z,6.38
2023-02-11T10:09:29.616Z,6.50
2023-02-11T10:12:18.632Z,6.52
2023-02-11T10:18:08.305Z,6.80
2023-02-11T10:20:47.476Z,6.83
2023-02-11T10:23:25.921Z,6.77
2023-02-11T10:26:00.252Z,6.65
2023-02-11T10:28:34.994Z,6.60
2023-02-11T10:31:08.754Z,6.58
2023-02-11T10:33:49.201Z,6.62
2023-02-11T10:36:24.852Z,6.68
2023-02-11T10:38:58.037Z,6.64
2023-02-11T10:41:36.088Z,6.66
2023-02-11T10:44:14.058Z,6.58
2023-02-11T10:46:47.107Z,6.57
2023-02-11T10:49:38.091Z,6.66
2023-02-11T10:52:21.271Z,6.84
2023-02-11T10:55:02.958Z,6.60
2023-02-11T10:57:39.019Z,6.46
2023-02-11T11:00:28.200Z,6.47
2023-02-11T11:03:03.377Z,6.60
2023-02-11T11:05:38.608Z,6.54
2023-02-11T11:08:13.250Z,6.55
2023-02-11T11:10:47.978Z,6.53
2023-02-11T11:13:27.548Z,6.55
2023-02-11T11:16:24.742Z,6.55
2023-02-11T11:19:21.526Z,6.58
2023-02-11T11:21:56.566Z,6.60
2023-02-11T11:24:34.867Z,6.65
2023-02-11T11:27:09.186Z,6.54
2023-02-11T11:29:47.365Z,6.59
2023-02-11T11:32:25.912Z,6.69
2023-02-11T11:35:04.025Z,6.56
2023-02-11T11:37:40.139Z,6.64
2023-02-11T11:40:27.447Z,6.56
2023-02-11T11:43:23.238Z,6.63
2023-02-11T11:46:03.176Z,6.50
2023-02-11T11:48:39.648Z,6.70
2023-02-11T11:51:14.985Z,6.70
2023-02-11T11:53:54.719Z,6.40
2023-02-11T11:56:40.803Z,6.65
2023-02-11T11:59:17.205Z,7.01
2023-02-11T12:02:06.264Z,7.05
2023-02-11T12:05:11.062Z,7.13
2023-02-11T12:07:57.999Z,7.19
2023-02-11T12:10:45.041Z,7.16
2023-02-11T12:13:27.710Z,7.12
2023-02-11T12:16:13.970Z,7.27
2023-02-11T12:19:07.465Z,7.30
2023-02-11T12:21:57.376Z,7.29
2023-02-11T12:24:41.628Z,7.23
2023-02-11T12:27:23.688Z,7.18
2023-02-11T12:30:06.166Z,7.18
2023-02-11T12:32:48.469Z,7.32
2023-02-11T12:35:41.750Z,7.35
2023-02-11T12:38:41.229Z,7.38
2023-02-11T12:41:51.632Z,7.31
2023-02-11T12:44:35.580Z,7.28
2023-02-11T12:47:18.149Z,7.32
2023-02-11T12:50:04.315Z,7.24
2023-02-11T12:52:50.193Z,7.34
2023-02-11T12:55:27.331Z,7.23
2023-02-11T12:58:03.359Z,7.27
2023-02-11T13:00:46.776Z,7.13
2023-02-11T13:03:25.945Z,7.13
2023-02-11T13:06:04.925Z,7.40
2023-02-11T13:08:44.041Z,7.26
2023-02-11T13:11:22.960Z,7.28
2023-02-11T13:14:02.513Z,7.32
2023-02-11T13:16:39.645Z,7.35
2023-02-11T13:19:25.303Z,7.40
2023-02-11T13:22:10.844Z,7.26
2023-02-11T13:24:45.527Z,7.26
2023-02-11T13:27:31.295Z,7.21
2023-02-11T13:30:28.448Z,7.27
2023-02-11T13:33:22.718Z,7.33
2023-02-11T13:36:16.366Z,7.34
2023-02-11T13:39:02.125Z,7.32
2023-02-11T13:41:39.853Z,7.23
2023-02-11T13:44:29.629Z,7.27
2023-02-11T13:47:05.808Z,7.24
2023-02-11T13:49:43.508Z,7.30
2023-02-11T13:52:27.205Z,7.27
2023-02-11T13:55:04.483Z,7.37
2023-02-11T13:57:39.869Z,7.37
2023-02-11T14:00:49.953Z,7.41
2023-02-11T14:03:49.350Z,7.45
2023-02-11T14:06:46.247Z,7.53
2023-02-11T14:09:41.060Z,7.53
2023-02-11T14:12:35.991Z,7.43
2023-02-11T14:15:29.292Z,7.57
2023-02-11T14:18:02.516Z,7.55
2023-02-11T14:20:45.031Z,7.52
2023-02-11T14:23:30.758Z,7.42
2023-02-11T14:26:36.422Z,7.32
2023-02-11T14:29:18.646Z,7.51
2023-02-11T14:32:05.388Z,7.50
2023-02-11T14:34:53.066Z,7.53
2023-02-11T14:37:39.345Z,7.66
2023-02-11T14:40:24.906Z,7.57
2023-02-11T14:43:02.172Z,7.69
2023-02-11T14:45:38.324Z,7.67
2023-02-11T14:48:18.959Z,7.51
2023-02-11T14:50:55.451Z,7.61
2023-02-11T14:53:30.219Z,7.62
2023-02-11T14:56:01.485Z,7.84
2023-02-11T14:58:35.377Z,7.78
2023-02-11T15:01:26.185Z,7.77
2023-02-11T15:04:00.711Z,7.85
2023-02-11T15:06:37.646Z,7.88
2023-02-11T15:09:18.820Z,7.76
2023-02-11T15:11:53.418Z,7.92
2023-02-11T15:14:29.276Z,7.91
2023-02-11T15:17:04.719Z,7.83
2023-02-11T15:19:41.211Z,7.93
2023-02-11T15:22:22.138Z,7.93
2023-02-11T15:25:10.377Z,7.92
2023-02-11T15:27:45.217Z,7.91
2023-02-11T15:30:35.443Z,7.93
2023-02-11T15:33:22.379Z,7.89
2023-02-11T15:35:55.725Z,8.02
2023-02-11T15:38:29.936Z,8.03
2023-02-11T15:41:04.406Z,7.97
2023-02-11T15:43:50.829Z,8.14
2023-02-11T15:46:40.467Z,8.04
2023-02-11T15:49:21.625Z,7.98
2023-02-11T15:51:58.215Z,8.14
2023-02-11T15:54:33.484Z,8.22
2023-02-11T15:57:09.665Z,8.18
2023-02-11T15:59:49.468Z,8.23
2023-02-11T16:02:26.569Z,8.20
2023-02-11T16:05:02.608Z,8.19
2023-02-11T16:07:52.294Z,8.20
2023-02-11T16:10:28.441Z,8.21
2023-02-11T16:13:18.996Z,8.23
2023-02-11T16:15:55.786Z,8.18
2023-02-11T16:18:42.432Z,8.28
2023-02-11T16:21:19.295Z,8.26
2023-02-11T16:23:58.985Z,8.24
2023-02-11T16:26:36.192Z,8.24
2023-02-11T16:29:12.647Z,8.35
2023-02-11T16:31:46.982Z,8.29
2023-02-11T16:34:22.356Z,8.33
2023-02-11T16:36:55.897Z,8.32
2023-02-11T16:39:28.786Z,8.42
2023-02-11T16:42:02.291Z,8.39
2023-02-11T16:44:35.938Z,8.44
2023-02-11T16:47:17.974Z,8.43
2023-02-11T16:49:51.225Z,8.41
2023-02-11T16:52:25.702Z,8.27
2023-02-11T16:55:00.500Z,8.32
2023-02-11T16:57:32.754Z,8.36
2023-02-11T17:00:17.408Z,8.32
2023-02-11T17:02:50.622Z,8.32
2023-02-11T17:05:27.061Z,8.33
2023-02-11T17:08:01.798Z,8.32
2023-02-11T17:10:33.066Z,8.25
2023-02-11T17:13:06.552Z,8.30
2023-02-11T17:15:39.944Z,8.23
2023-02-11T17:18:15.517Z,8.19
2023-02-11T17:20:48.772Z,8.28
2023-02-11T17:23:22.158Z,8.30
2023-02-11T17:25:59.727Z,8.30
2023-02-11T17:28:33.513Z,8.24
2023-02-11T17:31:11.154Z,8.29
2023-02-11T17:33:44.707Z,8.27
2023-02-11T17:36:17.926Z,8.33
2023-02-11T17:38:51.355Z,8.34
2023-02-11T17:41:24.389Z,8.38
2023-02-11T17:43:58.735Z,8.41
2023-02-11T17:46:32.455Z,8.38
2023-02-11T17:49:06.731Z,8.35
2023-02-11T17:51:41.289Z,8.39
2023-02-11T17:54:17.407Z,8.35
2023-02-11T17:56:51.225Z,8.33
2023-02-11T17:59:25.750Z,8.31
2023-02-11T18:01:58.706Z,8.45
2023-02-11T18:04:32.017Z,8.34
2023-02-11T18:07:06.246Z,8.36
2023-02-11T18:09:39.397Z,8.38
2023-02-11T18:12:12.745Z,8.35
2023-02-11T18:14:45.702Z,8.37
2023-02-11T18:17:18.484Z,8.43
2023-02-11T18:19:51.785Z,8.39
2023-02-11T18:22:27.031Z,8.46
2023-02-11T18:25:02.050Z,8.37
2023-02-11T18:27:35.172Z,8.41
2023-02-11T18:30:15.139Z,8.40
2023-02-11T18:32:47.658Z,8.41
2023-02-11T18:35:20.576Z,8.41
2023-02-11T18:37:54.377Z,8.40
2023-02-11T18:40:27.040Z,8.42
2023-02-11T18:43:00.056Z,8.40
2023-02-11T18:45:32.890Z,8.36
2023-02-11T18:48:07.035Z,8.27
2023-02-11T18:50:40.900Z,8.30
2023-02-11T18:53:16.058Z,8.30
2023-02-11T18:55:49.663Z,8.32
2023-02-11T18:58:22.670Z,8.30
2023-02-11T19:00:55.804Z,8.32
2023-02-11T19:03:28.285Z,8.23
2023-02-11T19:06:00.871Z,8.31
2023-02-11T19:08:33.776Z,8.39
2023-02-11T19:11:07.658Z,8.36
2023-02-11T19:13:40.188Z,8.25
2023-02-11T19:16:14.904Z,8.35
2023-02-11T19:18:45.804Z,8.49
2023-02-11T19:21:20.599Z,8.37
2023-02-11T19:23:53.263Z,8.32
2023-02-11T19:26:27.932Z,8.26
2023-02-11T19:29:00.802Z,8.31
2023-02-11T19:31:33.943Z,8.29
2023-02-11T19:34:07.585Z,8.38
2023-02-11T19:36:40.111Z,8.16
2023-02-11T19:39:13.656Z,8.34
2023-02-11T19:41:46.472Z,8.32
2023-02-11T19:44:19.585Z,8.19
2023-02-11T19:46:53.413Z,8.15
2023-02-11T19:49:28.138Z,8.27
2023-02-11T19:52:02.384Z,8.22
2023-02-11T19:54:35.083Z,8.33
2023-02-11T19:57:08.124Z,8.32
2023-02-11T19:59:41.230Z,8.33
2023-02-11T20:02:14.853Z,8.30
2023-02-11T20:04:48.557Z,8.35
2023-02-11T20:07:21.893Z,8.29
2023-02-11T20:09:55.431Z,8.23
2023-02-11T20:12:29.136Z,8.25
2023-02-11T20:15:02.076Z,8.29
2023-02-11T20:17:35.164Z,8.18
2023-02-11T20:20:09.318Z,8.16
2023-02-11T20:22:42.740Z,8.21
2023-02-11T20:25:15.748Z,8.25
2023-02-11T20:27:48.163Z,8.29
2023-02-11T20:30:21.930Z,8.31
2023-02-11T20:32:55.084Z,8.32
2023-02-11T20:35:27.601Z,8.27
2023-02-11T20:38:03.112Z,8.24
2023-02-11T20:40:36.392Z,8.23
2023-02-11T20:43:09.442Z,8.19
2023-02-11T20:45:42.372Z,8.18
2023-02-11T20:48:32.105Z,8.20
2023-02-11T20:51:10.743Z,8.07
2023-02-11T20:53:47.997Z,8.11
2023-02-11T20:56:22.348Z,8.09
2023-02-11T20:58:55.593Z,8.07
2023-02-11T21:01:30.652Z,7.99
2023-02-11T21:04:10.987Z,7.97
2023-02-11T21:06:45.814Z,8.06
2023-02-11T21:09:20.911Z,8.11
2023-02-11T21:11:54.928Z,8.11
2023-02-11T21:14:30.703Z,8.15
2023-02-11T21:17:03.222Z,8.14
2023-02-11T21:19:35.909Z,8.17
2023-02-11T21:22:08.757Z,8.16
2023-02-11T21:24:42.232Z,8.17
2023-02-11T21:27:16.253Z,8.20
2023-02-11T21:29:54.085Z,8.28
2023-02-11T21:32:28.118Z,8.31
2023-02-11T21:35:02.361Z,8.27
2023-02-11T21:37:35.378Z,8.18
2023-02-11T21:40:09.700Z,8.11
2023-02-11T21:42:42.562Z,8.15
2023-02-11T21:45:15.347Z,8.10
2023-02-11T21:47:48.237Z,8.10
2023-02-11T21:50:22.088Z,8.15
2023-02-11T21:52:54.906Z,8.11
2023-02-11T21:55:27.528Z,7.96
2023-02-11T21:58:00.999Z,7.93
2023-02-11T22:00:34.472Z,8.09
2023-02-11T22:03:07.789Z,8.08
2023-02-11T22:05:42.747Z,8.10
2023-02-11T22:08:15.417Z,8.06
2023-02-11T22:10:48.186Z,8.08
2023-02-11T22:13:20.682Z,8.15
2023-02-11T22:16:02.081Z,8.17
2023-02-11T22:18:34.928Z,8.14
2023-02-11T22:21:10.554Z,8.11
2023-02-11T22:23:43.885Z,8.06
2023-02-11T22:26:18.614Z,8.02
2023-02-11T22:28:49.944Z,8.00
2023-02-11T22:31:24.739Z,8.07
2023-02-11T22:33:58.056Z,8.03
2023-02-11T22:36:32.558Z,8.01
2023-02-11T22:39:07.574Z,7.84
2023-02-11T22:41:41.833Z,7.92
2023-02-11T22:44:16.420Z,7.93
2023-02-11T22:46:48.493Z,7.89
2023-02-11T22:49:23.332Z,7.93
2023-02-11T22:51:54.364Z,7.93
2023-02-11T22:54:27.629Z,7.92
2023-02-11T22:57:00.158Z,7.93
2023-02-11T22:59:34.607Z,7.94
2023-02-11T23:02:06.407Z,8.01
2023-02-11T23:04:40.090Z,7.98
2023-02-11T23:07:13.533Z,7.95
2023-02-11T23:09:46.249Z,7.93
2023-02-11T23:12:18.675Z,8.02
2023-02-11T23:14:52.439Z,8.00
2023-02-11T23:17:25.020Z,8.06
2023-02-11T23:19:57.907Z,8.07
2023-02-11T23:22:31.133Z,7.76
2023-02-11T23:25:07.762Z,8.04
2023-02-11T23:27:41.290Z,8.03
2023-02-11T23:30:16.082Z,8.07
2023-02-11T23:32:54.330Z,8.09
2023-02-11T23:35:27.303Z,8.05
2023-02-11T23:38:00.365Z,7.77
2023-02-11T23:40:33.192Z,8.08
2023-02-11T23:43:05.584Z,7.94
2023-02-11T23:45:38.579Z,7.95
2023-02-11T23:48:11.385Z,7.81
2023-02-11T23:50:44.768Z,7.88
2023-02-11T23:53:18.551Z,7.93
2023-02-11T23:55:51.538Z,7.95
2023-02-11T23:58:24.069Z,7.95
